createdAt,value
2019-01-10T00:00:26.678Z,5.90
2019-01-10T00:05:22.668Z,2.17
2019-01-10T00:10:18.565Z,2.33
2019-01-10T00:15:16.561Z,4.23
2019-01-10T00:20:14.355Z,5.63
2019-01-10T00:25:12.232Z,2.80
2019-01-10T00:30:18.529Z,5.40
2019-01-10T00:35:14.518Z,4.27
2019-01-10T00:40:15.020Z,7.53
2019-01-10T00:45:14.222Z,7.63
2019-01-10T00:50:13.024Z,8.80
2019-01-10T00:55:09.153Z,4.37
2019-01-10T01:00:14.412Z,6.30
2019-01-10T01:05:12.016Z,7.23
2019-01-10T01:10:17.184Z,3.40
2019-01-10T01:15:15.286Z,3.57
2019-01-10T01:20:14.782Z,6.63
2019-01-10T01:25:11.580Z,11.13
2019-01-10T01:30:10.803Z,2.33
2019-01-10T01:35:06.999Z,4.73
2019-01-10T01:40:09.249Z,5.53
2019-01-10T01:45:07.652Z,2.53
2019-01-10T01:50:07.361Z,14.00
2019-01-10T01:55:03.893Z,2.27
2019-01-10T01:59:59.826Z,2.80
2019-01-10T02:04:55.814Z,1.40
2019-01-10T02:09:51.843Z,4.10
2019-01-10T02:14:47.735Z,2.43
2019-01-10T02:19:44.302Z,10.23
2019-01-10T02:24:40.185Z,7.60
2019-01-10T02:29:36.772Z,5.00
2019-01-10T02:34:33.327Z,19.33
2019-01-10T02:39:29.952Z,2.70
2019-01-10T02:44:26.570Z,6.00
2019-01-10T02:49:23.344Z,5.40
2019-01-10T02:54:19.280Z,3.13
2019-01-10T02:59:15.179Z,2.70
2019-01-10T03:04:11.281Z,2.67
2019-01-10T03:09:07.890Z,2.13
2019-01-10T03:14:03.789Z,3.50
2019-01-10T03:19:00.997Z,17.00
2019-01-10T03:23:56.932Z,10.13
2019-01-10T03:28:52.825Z,5.23
2019-01-10T03:33:48.726Z,5.43
2019-01-10T03:38:44.633Z,12.33
2019-01-10T03:43:46.784Z,11.60
2019-01-10T03:48:38.351Z,5.20
2019-01-10T03:53:34.249Z,2.83
2019-01-10T03:58:30.155Z,13.57
2019-01-10T04:03:26.180Z,8.10
2019-01-10T04:08:22.085Z,12.47
2019-01-10T04:13:18.102Z,7.77
2019-01-10T04:18:14.001Z,20.50
2019-01-10T04:23:09.978Z,5.13
2019-01-10T04:28:05.883Z,6.67
2019-01-10T04:33:01.782Z,3.07
2019-01-10T04:37:57.690Z,7.47
2019-01-10T04:42:53.717Z,3.53
2019-01-10T04:47:49.628Z,8.00
2019-01-10T04:52:45.656Z,5.33
2019-01-10T04:57:41.593Z,5.43
2019-01-10T05:02:37.486Z,11.93
2019-01-10T05:07:33.398Z,5.87
2019-01-10T05:12:29.285Z,5.50
2019-01-10T05:17:25.214Z,6.80
2019-01-10T05:22:21.225Z,8.67
2019-01-10T05:27:17.140Z,2.97
2019-01-10T05:32:13.045Z,4.87
2019-01-10T05:37:08.962Z,4.77
2019-01-10T05:42:04.879Z,11.73
2019-01-10T05:47:00.774Z,7.97
2019-01-10T05:51:56.675Z,3.33
2019-01-10T05:56:52.603Z,8.00
2019-01-10T06:01:48.570Z,6.07
2019-01-10T06:06:44.468Z,5.33
2019-01-10T06:11:40.367Z,9.77
2019-01-10T06:16:36.282Z,7.67
2019-01-10T06:21:32.215Z,9.60
2019-01-10T06:26:29.031Z,9.13
2019-01-10T06:31:24.946Z,5.50
2019-01-10T06:36:20.847Z,3.80
2019-01-10T06:41:17.005Z,12.20
2019-01-10T06:46:13.051Z,9.93
2019-01-10T06:51:08.967Z,6.87
2019-01-10T06:56:05.026Z,7.27
2019-01-10T07:01:00.922Z,10.10
2019-01-10T07:05:56.821Z,4.13
2019-01-10T07:10:52.718Z,17.97
2019-01-10T07:15:48.649Z,17.20
2019-01-10T07:20:44.593Z,7.23
2019-01-10T07:25:40.491Z,6.33
2019-01-10T07:30:36.532Z,18.23
2019-01-10T07:35:32.432Z,8.97
2019-01-10T07:40:28.365Z,5.87
2019-01-10T07:45:24.373Z,7.50
2019-01-10T07:50:28.712Z,5.20
2019-01-10T07:55:24.623Z,5.77
2019-01-10T08:00:20.619Z,11.53
2019-01-10T08:05:16.618Z,9.80
2019-01-10T08:10:14.933Z,8.67
2019-01-10T08:15:14.565Z,7.33
2019-01-10T08:20:10.757Z,17.00
2019-01-10T08:25:08.063Z,10.80
2019-01-10T08:30:07.789Z,10.63
2019-01-10T08:35:05.101Z,6.33
2019-01-10T08:40:01.034Z,12.63
2019-01-10T08:44:56.949Z,7.00
2019-01-10T08:49:53.580Z,9.97
2019-01-10T08:54:51.753Z,16.20
2019-01-10T08:59:47.371Z,14.87
2019-01-10T09:04:43.281Z,9.73
2019-01-10T09:09:39.212Z,13.60
2019-01-10T09:14:35.174Z,10.60
2019-01-10T09:19:31.750Z,10.60
2019-01-10T09:24:27.609Z,11.63
2019-01-10T09:29:23.527Z,6.90
2019-01-10T09:34:24.561Z,11.53
2019-01-10T09:39:17.245Z,11.43
2019-01-10T09:44:13.154Z,8.80
2019-01-10T09:49:09.933Z,15.93
2019-01-10T09:54:06.106Z,7.40
2019-01-10T09:59:02.045Z,13.23
2019-01-10T10:03:58.033Z,11.10
2019-01-10T10:08:53.978Z,14.43
2019-01-10T10:13:49.867Z,12.87
2019-01-10T10:18:47.746Z,10.93
2019-01-10T10:23:43.750Z,20.87
2019-01-10T10:28:39.683Z,7.00
2019-01-10T10:33:35.594Z,14.17
2019-01-10T10:38:31.491Z,8.37
2019-01-10T10:43:27.448Z,4.73
2019-01-10T10:48:23.404Z,6.03
2019-01-10T10:53:20.136Z,7.20
2019-01-10T10:58:17.048Z,6.87
2019-01-10T11:03:13.063Z,3.67
2019-01-10T11:08:08.995Z,8.50
2019-01-10T11:13:04.985Z,12.00
2019-01-10T11:18:02.160Z,13.80
2019-01-10T11:22:59.033Z,7.43
2019-01-10T11:27:55.977Z,9.33
2019-01-10T11:32:53.766Z,9.33
2019-01-10T11:37:49.907Z,11.87
2019-01-10T11:42:46.114Z,4.27
2019-01-10T11:47:42.006Z,11.23
2019-01-10T11:52:37.927Z,6.80
2019-01-10T11:57:33.838Z,4.30
2019-01-10T12:02:36.293Z,5.83
2019-01-10T12:07:28.043Z,3.07
2019-01-10T12:12:23.945Z,5.67
2019-01-10T12:17:19.850Z,3.30
2019-01-10T12:22:15.829Z,5.83
2019-01-10T12:27:11.722Z,11.47
2019-01-10T12:32:07.820Z,3.53
2019-01-10T12:37:03.817Z,6.63
2019-01-10T12:41:59.714Z,3.23
2019-01-10T12:46:55.621Z,5.70
2019-01-10T12:51:51.513Z,3.63
2019-01-10T12:56:47.447Z,4.80
2019-01-10T13:01:43.657Z,5.83
2019-01-10T13:06:42.605Z,13.13
2019-01-10T13:11:42.003Z,6.87
2019-01-10T13:16:46.772Z,7.47
2019-01-10T13:21:43.269Z,5.93
2019-01-10T13:26:42.413Z,4.03
2019-01-10T13:31:44.363Z,8.77
2019-01-10T13:36:44.359Z,17.90
2019-01-10T13:41:43.007Z,6.13
2019-01-10T13:46:41.239Z,10.03
2019-01-10T13:51:38.211Z,8.50
2019-01-10T13:56:36.326Z,16.13
2019-01-10T14:01:34.050Z,13.10
2019-01-10T14:06:32.594Z,7.50
2019-01-10T14:11:30.991Z,6.83
2019-01-10T14:16:40.327Z,12.73
2019-01-10T14:21:37.782Z,7.80
2019-01-10T14:26:33.687Z,14.70
2019-01-10T14:31:38.130Z,15.67
2019-01-10T14:36:37.819Z,7.27
2019-01-10T14:41:37.083Z,13.10
2019-01-10T14:46:36.111Z,15.87
2019-01-10T14:51:40.280Z,13.07
2019-01-10T14:56:37.098Z,21.83
2019-01-10T15:06:56.222Z,18.77
2019-01-10T15:11:53.121Z,20.73
2019-01-10T15:16:50.932Z,16.33
2019-01-10T15:27:06.352Z,33.53
2019-01-10T15:32:02.281Z,20.37
2019-01-10T15:36:58.335Z,18.23
2019-01-10T15:41:54.342Z,16.50
2019-01-10T15:46:50.242Z,23.30
2019-01-10T15:51:46.163Z,17.30
2019-01-10T15:56:42.635Z,15.87
2019-01-10T16:01:39.691Z,33.80
2019-01-10T16:06:35.810Z,28.50
2019-01-10T16:11:32.805Z,19.13
2019-01-10T16:16:28.904Z,22.63
2019-01-10T16:21:25.114Z,15.57
2019-01-10T16:26:21.051Z,28.43
2019-01-10T16:31:17.756Z,22.43
2019-01-10T16:36:13.876Z,15.53
2019-01-10T16:41:09.813Z,19.40
2019-01-10T16:46:05.830Z,17.43
2019-01-10T16:51:01.737Z,23.93
2019-01-10T16:55:57.667Z,27.23
2019-01-10T17:00:53.880Z,18.80
2019-01-10T17:05:49.780Z,18.93
2019-01-10T17:10:45.698Z,21.97
2019-01-10T17:15:41.596Z,18.80
2019-01-10T17:20:37.509Z,18.23
2019-01-10T17:25:36.991Z,14.57
2019-01-10T17:30:33.010Z,21.13
2019-01-10T17:35:29.918Z,16.23
2019-01-10T17:40:26.232Z,20.70
2019-01-10T17:45:24.631Z,27.60
2019-01-10T17:50:20.532Z,29.50
2019-01-10T17:55:16.458Z,21.50
2019-01-10T18:00:36.906Z,22.77
2019-01-10T18:05:32.772Z,18.43
2019-01-10T18:10:28.849Z,22.40
2019-01-10T18:15:24.891Z,31.50
2019-01-10T18:20:24.199Z,28.97
2019-01-10T18:25:20.102Z,35.97
2019-01-10T18:30:21.060Z,22.43
2019-01-10T18:35:17.305Z,17.37
2019-01-10T18:40:15.284Z,27.40
2019-01-10T18:45:15.532Z,16.00
2019-01-10T18:50:15.863Z,25.73
2019-01-10T18:55:12.309Z,19.17
2019-01-10T19:00:33.188Z,18.20
2019-01-10T19:05:29.403Z,20.03
2019-01-10T19:10:25.371Z,17.57
2019-01-10T19:15:22.156Z,22.40
2019-01-10T19:20:21.259Z,18.83
2019-01-10T19:25:17.254Z,22.23
2019-01-10T19:30:16.385Z,27.27
2019-01-10T19:35:12.400Z,21.63
2019-01-10T19:40:12.123Z,30.33
2019-01-10T19:45:10.828Z,24.93
2019-01-10T19:50:15.771Z,24.63
2019-01-10T19:55:13.553Z,21.83
2019-01-10T20:00:27.267Z,24.37
2019-01-10T20:05:23.266Z,32.70
2019-01-10T20:10:19.203Z,29.67
2019-01-10T20:15:15.217Z,24.60
2019-01-10T20:20:26.161Z,20.40
2019-01-10T20:25:22.882Z,25.40
2019-01-10T20:30:18.798Z,26.07
2019-01-10T20:35:15.092Z,21.93
2019-01-10T20:40:13.099Z,21.87
2019-01-10T20:45:09.394Z,21.23
2019-01-10T20:50:13.423Z,26.07
2019-01-10T20:55:11.546Z,18.63
2019-01-10T21:00:17.166Z,30.00
2019-01-10T21:05:13.274Z,33.57
2019-01-10T21:10:12.171Z,22.53
2019-01-10T21:15:13.911Z,19.87
2019-01-10T21:20:10.514Z,22.40
2019-01-10T21:25:09.015Z,22.50
2019-01-10T21:30:08.344Z,31.90
2019-01-10T21:35:05.588Z,20.77
2019-01-10T21:40:03.702Z,19.30
2019-01-10T21:44:59.703Z,24.37
2019-01-10T21:49:56.312Z,25.17
2019-01-10T21:54:52.179Z,20.97
2019-01-10T21:59:48.129Z,26.80
2019-01-10T22:04:44.095Z,22.83
2019-01-10T22:09:40.095Z,24.13
2019-01-10T22:14:35.993Z,30.70
2019-01-10T22:19:32.654Z,20.57
2019-01-10T22:24:28.517Z,17.97
2019-01-10T22:29:24.444Z,23.50
2019-01-10T22:34:20.333Z,24.23
2019-01-10T22:39:16.234Z,22.73
2019-01-10T22:44:12.235Z,30.60
2019-01-10T22:49:09.408Z,19.93
2019-01-10T22:54:05.428Z,17.93
2019-01-10T22:59:01.332Z,17.30
2019-01-10T23:03:57.389Z,16.97
2019-01-10T23:08:53.291Z,15.70
2019-01-10T23:13:54.087Z,14.50
2019-01-10T23:18:54.243Z,18.23
2019-01-10T23:23:48.419Z,16.30
2019-01-10T23:28:44.311Z,19.10
2019-01-10T23:33:40.250Z,21.87
2019-01-10T23:38:36.144Z,9.27
2019-01-10T23:43:32.041Z,7.87
2019-01-10T23:48:28.040Z,10.63
2019-01-10T23:53:24.139Z,16.33
2019-01-10T23:58:20.092Z,15.50
